Time,TemperatureF,DewpointF,PressureIn,WindDirection,WindDirectionDegrees,WindSpeedMPH,WindSpeedGustMPH,Humidity,HourlyPrecipIn,Conditions,Clouds,dailyrainin,SoftwareType,DateUTC
2013-07-12 00:01:00,73.7,67.9,29.92,NE,48,0.0,0.0,82,0.00,,,0.00,VWS V13.01,2013-07-12 05:01:00,
2013-07-12 00:06:00,73.7,67.2,29.92,NE,48,0.0,0.0,80,0.00,,,0.00,VWS V13.01,2013-07-12 05:06:00,
2013-07-12 00:11:00,73.7,65.7,29.92,North,352,0.0,0.0,76,0.00,,,0.00,VWS V13.01,2013-07-12 05:11:00,
2013-07-12 00:15:00,74.1,64.9,29.92,NNW,342,0.0,0.0,73,0.00,,,0.00,VWS V13.01,2013-07-12 05:15:00,
2013-07-12 00:20:00,74.5,65.6,29.92,NNW,344,0.0,0.0,74,0.00,,,0.00,VWS V13.01,2013-07-12 05:20:00,
2013-07-12 00:25:00,74.6,65.0,29.92,NNW,344,0.0,0.0,72,0.00,,,0.00,VWS V13.01,2013-07-12 05:25:00,
2013-07-12 00:30:00,74.6,64.6,29.92,NNE,24,0.0,0.0,71,0.00,,,0.00,VWS V13.01,2013-07-12 05:30:00,
2013-07-12 00:35:00,74.6,65.0,29.92,NNE,24,0.0,0.0,72,0.00,,,0.00,VWS V13.01,2013-07-12 05:35:00,
2013-07-12 00:40:00,74.5,64.0,29.92,NNE,23,0.0,0.0,70,0.00,,,0.00,VWS V13.01,2013-07-12 05:40:00,
2013-07-12 00:45:00,74.6,63.8,29.95,NNE,23,0.0,0.0,69,0.00,,,0.00,VWS V13.01,2013-07-12 05:45:00,
2013-07-12 00:50:00,74.8,64.4,29.95,NNE,27,0.0,0.0,70,0.00,,,0.00,VWS V13.01,2013-07-12 05:50:00,
2013-07-12 01:02:00,75.2,63.5,29.95,NNE,26,0.0,0.0,67,0.00,,,0.00,VWS V13.01,2013-07-12 06:02:00,
2013-07-12 01:07:00,75.4,63.7,29.95,NNE,25,0.0,0.0,67,0.00,,,0.00,VWS V13.01,2013-07-12 06:07:00,
2013-07-12 01:12:00,75.4,63.7,29.95,NNE,25,0.0,0.0,67,0.00,,,0.00,VWS V13.01,2013-07-12 06:12:00,
2013-07-12 01:17:00,75.5,63.8,29.95,NNE,24,0.0,0.0,67,0.00,,,0.00,VWS V13.01,2013-07-12 06:17:00,
2013-07-12 01:22:00,75.7,64.0,29.95,NNE,24,0.0,0.0,67,0.00,,,0.00,VWS V13.01,2013-07-12 06:22:00,
2013-07-12 01:27:00,75.9,63.7,29.95,NNE,23,2.7,2.7,66,0.00,,,0.00,VWS V13.01,2013-07-12 06:27:00,
2013-07-12 01:32:00,76.1,63.9,29.95,NE,34,3.1,3.1,66,0.00,,,0.00,VWS V13.01,2013-07-12 06:32:00,
2013-07-12 01:37:00,76.3,64.1,29.95,NNE,28,2.7,2.7,66,0.00,,,0.00,VWS V13.01,2013-07-12 06:37:00,
2013-07-12 01:41:00,76.4,63.8,29.95,NNE,28,2.2,2.7,65,0.00,,,0.00,VWS V13.01,2013-07-12 06:41:00,
2013-07-12 01:46:00,76.4,64.2,29.95,NE,56,3.6,4.0,66,0.00,,,0.00,VWS V13.01,2013-07-12 06:46:00,
2013-07-12 01:51:00,76.4,64.2,29.95,ENE,60,2.2,2.7,66,0.00,,,0.00,VWS V13.01,2013-07-12 06:51:00,
2013-07-12 01:56:00,76.4,63.8,29.95,ENE,60,2.7,3.1,65,0.00,,,0.00,VWS V13.01,2013-07-12 06:56:00,
2013-07-12 02:01:00,76.6,64.0,29.95,ENE,73,3.1,3.1,65,0.00,,,0.00,VWS V13.01,2013-07-12 07:01:00,
2013-07-12 02:06:00,76.6,64.0,29.95,NE,51,0.0,3.1,65,0.00,,,0.00,VWS V13.01,2013-07-12 07:06:00,
2013-07-12 02:11:00,76.6,64.0,29.95,NE,56,3.1,3.1,65,0.00,,,0.00,VWS V13.01,2013-07-12 07:11:00,
2013-07-12 02:16:00,76.4,63.8,29.95,NE,56,5.8,5.8,65,0.00,,,0.00,VWS V13.01,2013-07-12 07:16:00,
2013-07-12 02:21:00,76.4,63.4,29.95,NE,46,2.7,3.6,64,0.00,,,0.00,VWS V13.01,2013-07-12 07:21:00,
2013-07-12 02:26:00,76.4,63.4,29.95,NE,51,4.0,4.0,64,0.00,,,0.00,VWS V13.01,2013-07-12 07:26:00,
2013-07-12 02:31:00,76.3,63.2,29.95,East,88,2.7,3.1,64,0.00,,,0.00,VWS V13.01,2013-07-12 07:31:00,
2013-07-12 02:36:00,76.3,62.3,29.95,NE,40,3.1,3.1,62,0.00,,,0.00,VWS V13.01,2013-07-12 07:36:00,
2013-07-12 02:41:00,76.3,62.3,29.95,ENE,57,2.7,2.7,62,0.00,,,0.00,VWS V13.01,2013-07-12 07:41:00,
2013-07-12 02:46:00,76.1,62.1,29.95,NE,53,3.6,4.0,62,0.00,,,0.00,VWS V13.01,2013-07-12 07:46:00,
2013-07-12 02:51:00,75.9,62.0,29.95,NE,37,2.7,3.6,62,0.00,,,0.00,VWS V13.01,2013-07-12 07:51:00,
2013-07-12 02:56:00,75.7,62.2,29.95,NE,44,6.7,6.7,63,0.00,,,0.00,VWS V13.01,2013-07-12 07:56:00,
2013-07-12 03:01:00,75.5,61.6,29.95,NE,44,4.0,4.9,62,0.00,,,0.00,VWS V13.01,2013-07-12 08:01:00,
2013-07-12 03:06:00,75.4,61.5,29.95,NE,37,3.6,4.0,62,0.00,,,0.00,VWS V13.01,2013-07-12 08:06:00,
2013-07-12 03:11:00,75.4,61.9,29.95,NE,42,3.6,3.6,63,0.00,,,0.00,VWS V13.01,2013-07-12 08:11:00,
2013-07-12 03:16:00,75.2,61.7,29.95,NE,52,0.0,2.2,63,0.00,,,0.00,VWS V13.01,2013-07-12 08:16:00,
2013-07-12 03:21:00,74.8,61.8,29.95,NNE,26,3.1,3.1,64,0.00,,,0.00,VWS V13.01,2013-07-12 08:21:00,
2013-07-12 03:26:00,74.6,62.1,29.95,East,79,2.2,2.7,65,0.00,,,0.00,VWS V13.01,2013-07-12 08:26:00,
2013-07-12 03:31:00,74.5,61.9,29.95,NE,40,2.2,3.6,65,0.00,,,0.00,VWS V13.01,2013-07-12 08:31:00,
2013-07-12 03:36:00,74.1,62.0,29.95,NE,44,3.1,3.1,66,0.00,,,0.00,VWS V13.01,2013-07-12 08:36:00,
2013-07-12 03:41:00,73.9,61.9,29.95,East,92,0.0,0.0,66,0.00,,,0.00,VWS V13.01,2013-07-12 08:41:00,
2013-07-12 03:46:00,73.7,61.7,29.95,ENE,62,0.0,0.0,66,0.00,,,0.00,VWS V13.01,2013-07-12 08:46:00,
2013-07-12 03:51:00,73.6,61.1,29.95,ENE,61,0.0,0.0,65,0.00,,,0.00,VWS V13.01,2013-07-12 08:51:00,
2013-07-12 03:56:00,73.4,61.3,29.95,NNE,30,0.0,0.0,66,0.00,,,0.00,VWS V13.01,2013-07-12 08:56:00,
2013-07-12 04:01:00,73.2,60.7,29.95,NNE,30,0.0,0.0,65,0.00,,,0.00,VWS V13.01,2013-07-12 09:01:00,
2013-07-12 04:06:00,73.2,60.7,29.95,NNE,20,0.0,0.0,65,0.00,,,0.00,VWS V13.01,2013-07-12 09:06:00,
2013-07-12 04:11:00,73.0,60.6,29.95,NNE,20,0.0,0.0,65,0.00,,,0.00,VWS V13.01,2013-07-12 09:11:00,
2013-07-12 04:16:00,72.8,60.8,29.98,East,92,0.0,0.0,66,0.00,,,0.00,VWS V13.01,2013-07-12 09:16:00,
2013-07-12 04:21:00,72.8,60.8,29.98,ENE,62,0.0,4.5,66,0.00,,,0.00,VWS V13.01,2013-07-12 09:21:00,
2013-07-12 04:26:00,72.7,60.7,29.98,ENE,65,0.0,0.0,66,0.00,,,0.00,VWS V13.01,2013-07-12 09:26:00,
2013-07-12 04:31:00,72.5,60.5,29.98,ESE,118,2.2,2.2,66,0.00,,,0.00,VWS V13.01,2013-07-12 09:31:00,
2013-07-12 04:36:00,72.5,60.5,29.98,ENE,62,0.0,0.0,66,0.00,,,0.00,VWS V13.01,2013-07-12 09:36:00,
2013-07-12 04:41:00,72.5,60.5,29.98,ENE,62,2.2,2.7,66,0.00,,,0.00,VWS V13.01,2013-07-12 09:41:00,
2013-07-12 04:46:00,72.3,60.3,29.98,East,91,2.7,3.1,66,0.00,,,0.00,VWS V13.01,2013-07-12 09:46:00,
2013-07-12 04:51:00,72.3,59.9,29.98,ENE,69,0.0,0.0,65,0.00,,,0.00,VWS V13.01,2013-07-12 09:51:00,
2013-07-12 04:56:00,72.3,59.9,29.98,East,101,2.7,2.7,65,0.00,,,0.00,VWS V13.01,2013-07-12 09:56:00,
2013-07-12 05:01:00,72.1,59.7,29.98,NE,53,2.7,2.7,65,0.00,,,0.00,VWS V13.01,2013-07-12 10:01:00,
2013-07-12 05:06:00,72.1,59.7,29.98,NNE,30,2.2,2.2,65,0.00,,,0.00,VWS V13.01,2013-07-12 10:06:00,
2013-07-12 05:11:00,71.9,59.5,29.98,ENE,71,0.0,0.0,65,0.00,,,0.00,VWS V13.01,2013-07-12 10:11:00,
2013-07-12 05:16:00,71.6,59.2,29.98,ENE,65,0.0,0.0,65,0.00,,,0.00,VWS V13.01,2013-07-12 10:16:00,
2013-07-12 05:21:00,71.4,59.0,29.98,NE,48,2.2,3.6,65,0.00,,,0.00,VWS V13.01,2013-07-12 10:21:00,
2013-07-12 05:26:00,71.4,58.6,29.98,NE,54,2.2,2.2,64,0.00,,,0.00,VWS V13.01,2013-07-12 10:26:00,
2013-07-12 05:31:00,71.4,58.2,29.98,East,94,4.0,4.0,63,0.00,,,0.00,VWS V13.01,2013-07-12 10:31:00,
2013-07-12 05:36:00,71.4,58.2,29.98,ENE,58,2.2,2.2,63,0.00,,,0.00,VWS V13.01,2013-07-12 10:36:00,
2013-07-12 05:41:00,71.4,58.2,29.98,East,87,4.9,4.9,63,0.00,,,0.00,VWS V13.01,2013-07-12 10:41:00,
2013-07-12 05:46:00,71.4,58.2,29.98,East,95,0.0,2.2,63,0.00,,,0.00,VWS V13.01,2013-07-12 10:46:00,
2013-07-12 05:51:00,71.2,58.0,29.98,East,95,0.0,0.0,63,0.00,,,0.00,VWS V13.01,2013-07-12 10:51:00,
2013-07-12 05:56:00,71.0,58.3,29.98,NE,47,2.2,3.1,64,0.00,,,0.00,VWS V13.01,2013-07-12 10:56:00,
2013-07-12 06:01:00,70.9,58.1,29.98,NE,47,0.0,0.0,64,0.00,,,0.00,VWS V13.01,2013-07-12 11:01:00,
2013-07-12 06:06:00,70.7,57.9,29.98,NE,47,0.0,0.0,64,0.00,,,0.00,VWS V13.01,2013-07-12 11:06:00,
2013-07-12 06:11:00,70.3,58.0,29.98,NE,47,0.0,0.0,65,0.00,,,0.00,VWS V13.01,2013-07-12 11:11:00,
2013-07-12 06:16:00,70.1,57.8,29.98,NE,47,0.0,0.0,65,0.00,,,0.00,VWS V13.01,2013-07-12 11:16:00,
2013-07-12 06:21:00,70.0,57.7,29.98,NE,36,0.0,0.0,65,0.00,,,0.00,VWS V13.01,2013-07-12 11:21:00,
2013-07-12 06:26:00,69.8,57.5,29.98,NE,38,3.1,3.1,65,0.00,,,0.00,VWS V13.01,2013-07-12 11:26:00,
2013-07-12 06:31:00,70.0,57.7,29.98,NE,46,2.7,2.7,65,0.00,,,0.00,VWS V13.01,2013-07-12 11:31:00,
2013-07-12 06:36:00,70.0,57.7,29.98,NE,46,0.0,0.0,65,0.00,,,0.00,VWS V13.01,2013-07-12 11:36:00,
2013-07-12 06:41:00,70.0,57.7,29.98,NE,46,0.0,0.0,65,0.00,,,0.00,VWS V13.01,2013-07-12 11:41:00,
2013-07-12 06:46:00,70.0,57.2,30.01,ENE,58,0.0,0.0,64,0.00,,,0.00,VWS V13.01,2013-07-12 11:46:00,
2013-07-12 06:51:00,70.0,57.7,30.01,ENE,58,0.0,0.0,65,0.00,,,0.00,VWS V13.01,2013-07-12 11:51:00,
2013-07-12 06:56:00,70.0,57.7,30.01,NNE,33,0.0,0.0,65,0.00,,,0.00,VWS V13.01,2013-07-12 11:56:00,
2013-07-12 07:01:00,70.1,57.4,30.01,NNE,33,0.0,0.0,64,0.00,,,0.00,VWS V13.01,2013-07-12 12:01:00,
2013-07-12 07:06:00,70.3,58.0,30.01,NNE,33,0.0,0.0,65,0.00,,,0.00,VWS V13.01,2013-07-12 12:06:00,
2013-07-12 07:11:00,70.5,58.2,30.01,NNE,33,0.0,0.0,65,0.00,,,0.00,VWS V13.01,2013-07-12 12:11:00,
2013-07-12 07:16:00,70.9,58.5,30.01,NNE,33,0.0,0.0,65,0.00,,,0.00,VWS V13.01,2013-07-12 12:16:00,
2013-07-12 07:21:00,71.2,58.4,30.01,NNE,22,0.0,2.2,64,0.00,,,0.00,VWS V13.01,2013-07-12 12:21:00,
2013-07-12 07:26:00,71.8,58.1,30.01,NE,35,3.6,3.6,62,0.00,,,0.00,VWS V13.01,2013-07-12 12:26:00,
2013-07-12 07:31:00,72.1,57.9,30.01,North,11,3.1,3.6,61,0.00,,,0.00,VWS V13.01,2013-07-12 12:31:00,
2013-07-12 07:36:00,72.1,58.4,30.01,NNE,33,2.2,2.7,62,0.00,,,0.00,VWS V13.01,2013-07-12 12:36:00,
2013-07-12 07:41:00,72.5,58.3,30.01,North,2,3.6,3.6,61,0.00,,,0.00,VWS V13.01,2013-07-12 12:41:00,
2013-07-12 07:46:00,72.7,58.0,30.01,NE,37,3.6,3.6,60,0.00,,,0.00,VWS V13.01,2013-07-12 12:46:00,
2013-07-12 07:51:00,73.0,57.9,30.01,NE,44,4.0,4.0,59,0.00,,,0.00,VWS V13.01,2013-07-12 12:51:00,
2013-07-12 07:56:00,73.2,57.5,30.01,NE,51,4.0,4.0,58,0.00,,,0.00,VWS V13.01,2013-07-12 12:56:00,
2013-07-12 08:01:00,73.4,57.7,30.01,NNW,330,4.0,4.0,58,0.00,,,0.00,VWS V13.01,2013-07-12 13:01:00,
2013-07-12 08:06:00,73.4,56.8,30.01,NNE,32,3.1,5.4,56,0.00,,,0.00,VWS V13.01,2013-07-12 13:06:00,
2013-07-12 08:10:00,73.4,56.8,30.01,NE,36,2.7,2.7,56,0.00,,,0.00,VWS V13.01,2013-07-12 13:10:00,
2013-07-12 08:11:00,73.4,56.8,30.01,NE,36,2.7,2.7,56,0.00,,,0.00,VWS V13.01,2013-07-12 13:11:00,
2013-07-12 08:16:00,73.7,56.6,30.04,NE,48,2.2,3.1,55,0.00,,,0.00,VWS V13.01,2013-07-12 13:16:00,
2013-07-12 08:21:00,74.1,56.4,30.04,East,100,5.4,5.8,54,0.00,,,0.00,VWS V13.01,2013-07-12 13:21:00,
2013-07-12 08:26:00,74.1,56.4,30.04,NE,56,3.6,4.0,54,0.00,,,0.00,VWS V13.01,2013-07-12 13:26:00,
2013-07-12 08:31:00,74.5,56.8,30.04,ENE,77,3.6,3.6,54,0.00,,,0.00,VWS V13.01,2013-07-12 13:31:00,
2013-07-12 08:36:00,74.8,57.1,30.04,NE,51,3.6,3.6,54,0.00,,,0.00,VWS V13.01,2013-07-12 13:36:00,
2013-07-12 08:40:00,74.6,56.4,30.04,ENE,76,4.9,4.9,53,0.00,,,0.00,VWS V13.01,2013-07-12 13:40:00,
2013-07-12 08:45:00,74.6,56.4,30.04,NNE,12,3.6,3.6,53,0.00,,,0.00,VWS V13.01,2013-07-12 13:45:00,
2013-07-12 08:50:00,75.0,56.7,30.04,ENE,75,4.0,4.0,53,0.00,,,0.00,VWS V13.01,2013-07-12 13:50:00,
2013-07-12 08:55:00,75.2,56.9,30.04,NNE,13,3.6,3.6,53,0.00,,,0.00,VWS V13.01,2013-07-12 13:55:00,
2013-07-12 09:00:00,75.4,57.1,30.04,NE,52,2.7,4.0,53,0.00,,,0.00,VWS V13.01,2013-07-12 14:00:00,
2013-07-12 09:05:00,75.5,56.7,30.04,NNE,23,4.0,4.0,52,0.00,,,0.00,VWS V13.01,2013-07-12 14:05:00,
2013-07-12 09:10:00,75.7,57.4,30.04,NE,54,3.1,3.1,53,0.00,,,0.00,VWS V13.01,2013-07-12 14:10:00,
2013-07-12 09:15:00,76.3,56.8,30.01,East,101,8.1,10.5,51,0.00,,,0.00,VWS V13.01,2013-07-12 14:15:00,
2013-07-12 09:20:00,76.1,57.2,30.01,ESE,114,3.6,5.8,52,0.00,,,0.00,VWS V13.01,2013-07-12 14:20:00,
2013-07-12 09:25:00,75.9,57.0,30.01,ESE,118,4.0,4.0,52,0.00,,,0.00,VWS V13.01,2013-07-12 14:25:00,
2013-07-12 09:30:00,75.7,56.3,30.01,NE,52,3.6,6.3,51,0.00,,,0.00,VWS V13.01,2013-07-12 14:30:00,
2013-07-12 09:35:00,75.9,57.0,30.01,ESE,103,3.1,4.9,52,0.00,,,0.00,VWS V13.01,2013-07-12 14:35:00,
2013-07-12 09:40:00,76.1,57.2,30.01,NE,44,5.4,5.4,52,0.00,,,0.00,VWS V13.01,2013-07-12 14:40:00,
2013-07-12 09:45:00,77.0,58.0,30.04,ENE,60,4.9,4.9,52,0.00,,,0.00,VWS V13.01,2013-07-12 14:45:00,
2013-07-12 09:50:00,77.0,57.5,30.04,ENE,69,5.4,5.4,51,0.00,,,0.00,VWS V13.01,2013-07-12 14:50:00,
2013-07-12 09:55:00,77.0,57.5,30.04,ESE,112,5.4,8.1,51,0.00,,,0.00,VWS V13.01,2013-07-12 14:55:00,
2013-07-12 10:00:00,77.0,56.9,30.04,ENE,60,3.6,4.0,50,0.00,,,0.00,VWS V13.01,2013-07-12 15:00:00,
2013-07-12 10:05:00,77.2,57.7,30.04,ENE,77,4.9,4.9,51,0.00,,,0.00,VWS V13.01,2013-07-12 15:05:00,
2013-07-12 10:10:00,77.7,58.2,30.04,East,82,3.1,3.1,51,0.00,,,0.00,VWS V13.01,2013-07-12 15:10:00,
2013-07-12 10:15:00,78.2,58.7,30.04,NNE,30,2.7,4.0,51,0.00,,,0.00,VWS V13.01,2013-07-12 15:15:00,
2013-07-12 10:20:00,79.0,58.8,30.04,ESE,116,3.6,3.6,50,0.00,,,0.00,VWS V13.01,2013-07-12 15:20:00,
2013-07-12 10:25:00,79.1,58.9,30.04,East,91,5.4,5.8,50,0.00,,,0.00,VWS V13.01,2013-07-12 15:25:00,
2013-07-12 10:30:00,79.0,58.8,30.04,NE,55,4.0,4.0,50,0.00,,,0.00,VWS V13.01,2013-07-12 15:30:00,
2013-07-12 10:35:00,79.1,58.4,30.04,ESE,110,7.6,8.3,49,0.00,,,0.00,VWS V13.01,2013-07-12 15:35:00,
2013-07-12 10:40:00,79.1,58.9,30.04,ENE,68,4.0,4.9,50,0.00,,,0.00,VWS V13.01,2013-07-12 15:40:00,
2013-07-12 10:45:00,78.8,58.6,30.01,East,90,3.1,4.9,50,0.00,,,0.00,VWS V13.01,2013-07-12 15:45:00,
2013-07-12 10:50:00,78.6,57.9,30.01,NE,52,4.0,7.6,49,0.00,,,0.00,VWS V13.01,2013-07-12 15:50:00,
2013-07-12 10:55:00,78.6,57.9,30.01,SE,143,4.5,8.3,49,0.00,,,0.00,VWS V13.01,2013-07-12 15:55:00,
2013-07-12 11:00:00,78.8,58.6,30.01,East,96,2.7,3.6,50,0.00,,,0.00,VWS V13.01,2013-07-12 16:00:00,
2013-07-12 11:05:00,79.7,59.4,30.01,ESE,114,6.3,8.1,50,0.00,,,0.00,VWS V13.01,2013-07-12 16:05:00,
2013-07-12 11:10:00,79.9,59.0,30.01,ENE,76,5.8,8.1,49,0.00,,,0.00,VWS V13.01,2013-07-12 16:10:00,
2013-07-12 11:15:00,80.2,59.3,30.01,ESE,102,4.0,4.0,49,0.00,,,0.00,VWS V13.01,2013-07-12 16:15:00,
2013-07-12 11:20:00,80.4,58.9,30.01,SE,130,3.1,4.0,48,0.00,,,0.00,VWS V13.01,2013-07-12 16:20:00,
2013-07-12 11:25:00,80.4,59.5,30.01,East,91,3.1,5.4,49,0.00,,,0.00,VWS V13.01,2013-07-12 16:25:00,
2013-07-12 11:30:00,81.1,59.0,30.01,NE,48,2.7,5.4,47,0.00,,,0.00,VWS V13.01,2013-07-12 16:30:00,
2013-07-12 11:35:00,80.8,58.7,30.01,SE,136,4.0,4.0,47,0.00,,,0.00,VWS V13.01,2013-07-12 16:35:00,
2013-07-12 11:40:00,80.9,59.4,30.01,East,101,6.3,6.3,48,0.00,,,0.00,VWS V13.01,2013-07-12 16:40:00,
2013-07-12 11:45:00,80.9,58.2,30.01,ESE,114,4.9,4.9,46,0.00,,,0.00,VWS V13.01,2013-07-12 16:45:00,
2013-07-12 11:50:00,80.9,59.4,30.01,ESE,108,8.3,8.3,48,0.00,,,0.00,VWS V13.01,2013-07-12 16:50:00,
2013-07-12 11:55:00,81.7,60.1,30.01,ENE,58,8.3,8.3,48,0.00,,,0.00,VWS V13.01,2013-07-12 16:55:00,
2013-07-12 12:01:00,82.2,59.4,30.01,ENE,60,2.7,5.4,46,0.00,,,0.00,VWS V13.01,2013-07-12 17:01:00,
2013-07-12 12:06:00,82.6,59.1,30.01,SE,132,5.8,5.8,45,0.00,,,0.00,VWS V13.01,2013-07-12 17:06:00,
2013-07-12 12:11:00,82.0,59.8,30.01,ESE,116,3.1,6.3,47,0.00,,,0.00,VWS V13.01,2013-07-12 17:11:00,
2013-07-12 12:16:00,82.6,60.9,30.01,ESE,107,3.6,3.6,48,0.00,,,0.00,VWS V13.01,2013-07-12 17:16:00,
2013-07-12 12:21:00,82.7,59.9,30.01,East,90,4.0,4.0,46,0.00,,,0.00,VWS V13.01,2013-07-12 17:21:00,
2013-07-12 12:27:00,82.7,60.5,30.01,ESE,118,5.4,6.3,47,0.00,,,0.00,VWS V13.01,2013-07-12 17:27:00,
2013-07-12 12:32:00,82.6,59.7,30.01,SSE,147,3.1,5.8,46,0.00,,,0.00,VWS V13.01,2013-07-12 17:32:00,
2013-07-12 12:37:00,83.1,59.6,30.01,East,81,2.7,8.1,45,0.00,,,0.00,VWS V13.01,2013-07-12 17:37:00,
2013-07-12 12:42:00,82.9,60.0,30.01,SSE,147,2.7,2.7,46,0.00,,,0.00,VWS V13.01,2013-07-12 17:42:00,
2013-07-12 12:47:00,83.1,62.0,30.01,ESE,117,4.0,4.5,49,0.00,,,0.00,VWS V13.01,2013-07-12 17:47:00,
2013-07-12 12:52:00,83.3,61.6,30.01,SSW,194,7.6,7.6,48,0.00,,,0.00,VWS V13.01,2013-07-12 17:52:00,
2013-07-12 12:57:00,83.6,61.3,30.01,ESE,109,5.4,5.8,47,0.00,,,0.00,VWS V13.01,2013-07-12 17:57:00,
2013-07-12 13:02:00,84.2,60.6,30.01,East,91,6.3,6.3,45,0.00,,,0.00,VWS V13.01,2013-07-12 18:02:00,
2013-07-12 13:07:00,84.5,61.5,30.01,SE,143,6.3,6.3,46,0.00,,,0.00,VWS V13.01,2013-07-12 18:07:00,
2013-07-12 13:12:00,84.2,61.2,30.01,SE,139,2.7,5.8,46,0.00,,,0.00,VWS V13.01,2013-07-12 18:12:00,
2013-07-12 13:18:00,84.0,60.4,30.01,East,94,3.6,5.8,45,0.00,,,0.00,VWS V13.01,2013-07-12 18:18:00,
2013-07-12 13:23:00,84.4,61.3,30.01,SSE,159,3.6,3.6,46,0.00,,,0.00,VWS V13.01,2013-07-12 18:23:00,
2013-07-12 13:28:00,84.4,61.3,30.01,SSW,196,2.7,2.7,46,0.00,,,0.00,VWS V13.01,2013-07-12 18:28:00,
2013-07-12 13:33:00,84.9,63.0,29.98,NE,45,3.6,4.0,48,0.00,,,0.00,VWS V13.01,2013-07-12 18:33:00,
2013-07-12 13:38:00,85.1,61.4,29.98,ESE,119,6.3,6.3,45,0.00,,,0.00,VWS V13.01,2013-07-12 18:38:00,
2013-07-12 13:43:00,84.7,60.4,29.98,East,79,6.3,6.3,44,0.00,,,0.00,VWS V13.01,2013-07-12 18:43:00,
2013-07-12 13:48:00,84.9,61.8,29.98,South,180,3.1,3.1,46,0.00,,,0.00,VWS V13.01,2013-07-12 18:48:00,
2013-07-12 13:53:00,85.1,61.4,29.98,South,170,5.4,7.6,45,0.00,,,0.00,VWS V13.01,2013-07-12 18:53:00,
2013-07-12 13:59:00,85.1,62.0,29.98,East,88,4.0,5.4,46,0.00,,,0.00,VWS V13.01,2013-07-12 18:59:00,
2013-07-12 14:04:00,84.7,61.0,29.98,SE,139,6.3,6.3,45,0.00,,,0.00,VWS V13.01,2013-07-12 19:04:00,
2013-07-12 14:09:00,84.5,62.7,29.98,SE,135,4.0,6.3,48,0.00,,,0.00,VWS V13.01,2013-07-12 19:09:00,
2013-07-12 14:14:00,84.9,62.4,29.98,SSW,202,5.8,7.2,47,0.00,,,0.00,VWS V13.01,2013-07-12 19:14:00,
2013-07-12 14:19:00,85.1,62.0,29.98,SSE,165,5.4,8.1,46,0.00,,,0.00,VWS V13.01,2013-07-12 19:19:00,
2013-07-12 14:25:00,85.1,62.6,29.98,South,186,6.3,6.3,47,0.00,,,0.00,VWS V13.01,2013-07-12 19:25:00,
2013-07-12 14:30:00,84.9,63.0,29.98,ENE,76,2.7,3.6,48,0.00,,,0.00,VWS V13.01,2013-07-12 19:30:00,
2013-07-12 14:35:00,85.1,63.8,29.98,ESE,111,3.1,4.9,49,0.00,,,0.00,VWS V13.01,2013-07-12 19:35:00,
2013-07-12 14:40:00,85.4,62.3,29.98,South,173,5.8,6.7,46,0.00,,,0.00,VWS V13.01,2013-07-12 19:40:00,
2013-07-12 14:45:00,85.4,62.3,29.98,East,95,4.9,4.9,46,0.00,,,0.00,VWS V13.01,2013-07-12 19:45:00,
2013-07-12 14:50:00,85.6,63.7,29.98,SSE,150,3.1,4.0,48,0.00,,,0.00,VWS V13.01,2013-07-12 19:50:00,
2013-07-12 14:56:00,86.3,62.5,29.98,ESE,113,5.8,5.8,45,0.00,,,0.00,VWS V13.01,2013-07-12 19:56:00,
2013-07-12 15:01:00,86.2,62.3,29.98,SE,130,3.1,5.8,45,0.00,,,0.00,VWS V13.01,2013-07-12 20:01:00,
2013-07-12 15:06:00,86.2,61.1,29.98,East,91,3.6,4.0,43,0.00,,,0.00,VWS V13.01,2013-07-12 20:06:00,
2013-07-12 15:11:00,86.2,64.2,29.98,SE,128,2.7,4.0,48,0.00,,,0.00,VWS V13.01,2013-07-12 20:11:00,
2013-07-12 15:16:00,86.5,63.3,29.95,SE,143,3.6,6.3,46,0.00,,,0.00,VWS V13.01,2013-07-12 20:16:00,
2013-07-12 15:21:00,86.7,61.5,29.95,South,169,5.8,6.3,43,0.00,,,0.00,VWS V13.01,2013-07-12 20:21:00,
2013-07-12 15:26:00,86.5,63.3,29.95,SSE,160,3.6,5.8,46,0.00,,,0.00,VWS V13.01,2013-07-12 20:26:00,
2013-07-12 15:31:00,86.5,62.0,29.95,South,179,4.9,6.3,44,0.00,,,0.00,VWS V13.01,2013-07-12 20:31:00,
2013-07-12 15:36:00,86.5,63.3,29.95,East,88,5.4,8.1,46,0.00,,,0.00,VWS V13.01,2013-07-12 20:36:00,
2013-07-12 15:41:00,86.9,61.7,29.95,ESE,110,3.6,5.4,43,0.00,,,0.00,VWS V13.01,2013-07-12 20:41:00,
2013-07-12 15:46:00,86.7,62.8,29.95,South,173,4.0,4.0,45,0.00,,,0.00,VWS V13.01,2013-07-12 20:46:00,
2013-07-12 15:52:00,86.3,61.9,29.95,SSW,201,5.4,5.8,44,0.00,,,0.00,VWS V13.01,2013-07-12 20:52:00,
2013-07-12 15:57:00,86.2,61.1,29.95,South,170,11.0,11.0,43,0.00,,,0.00,VWS V13.01,2013-07-12 20:57:00,
2013-07-12 16:02:00,86.0,62.8,29.95,SSW,196,3.1,4.0,46,0.00,,,0.00,VWS V13.01,2013-07-12 21:02:00,
2013-07-12 16:07:00,86.2,61.7,29.95,South,179,5.8,6.3,44,0.00,,,0.00,VWS V13.01,2013-07-12 21:07:00,
2013-07-12 16:12:00,86.2,62.3,29.95,SSW,204,3.1,3.1,45,0.00,,,0.00,VWS V13.01,2013-07-12 21:12:00,
2013-07-12 16:17:00,86.5,62.0,29.95,SE,143,5.4,5.4,44,0.00,,,0.00,VWS V13.01,2013-07-12 21:17:00,
2013-07-12 16:23:00,86.5,62.0,29.95,South,172,3.1,4.0,44,0.00,,,0.00,VWS V13.01,2013-07-12 21:23:00,
2013-07-12 16:28:00,86.7,63.5,29.95,SSW,197,4.0,4.0,46,0.00,,,0.00,VWS V13.01,2013-07-12 21:28:00,
2013-07-12 16:33:00,87.1,62.5,29.95,South,187,2.7,2.7,44,0.00,,,0.00,VWS V13.01,2013-07-12 21:33:00,
2013-07-12 16:38:00,87.1,62.5,29.95,South,187,5.8,8.3,44,0.00,,,0.00,VWS V13.01,2013-07-12 21:38:00,
2013-07-12 16:43:00,87.1,62.5,29.95,SSE,162,5.8,8.1,44,0.00,,,0.00,VWS V13.01,2013-07-12 21:43:00,
2013-07-12 16:48:00,86.7,62.8,29.95,South,187,5.4,5.4,45,0.00,,,0.00,VWS V13.01,2013-07-12 21:48:00,
2013-07-12 16:54:00,86.7,62.2,29.95,SSW,206,2.7,4.9,44,0.00,,,0.00,VWS V13.01,2013-07-12 21:54:00,
2013-07-12 16:59:00,87.2,65.2,29.95,South,179,3.1,4.0,48,0.00,,,0.00,VWS V13.01,2013-07-12 21:59:00,
2013-07-12 17:04:00,87.2,63.3,29.95,South,171,4.0,4.0,45,0.00,,,0.00,VWS V13.01,2013-07-12 22:04:00,
2013-07-12 17:09:00,87.6,63.0,29.95,South,184,5.4,5.4,44,0.00,,,0.00,VWS V13.01,2013-07-12 22:09:00,
2013-07-12 17:14:00,87.4,62.2,29.95,South,173,0.0,0.0,43,0.00,,,0.00,VWS V13.01,2013-07-12 22:14:00,
2013-07-12 17:19:00,88.0,62.7,29.95,WSW,253,3.1,3.6,43,0.00,,,0.00,VWS V13.01,2013-07-12 22:19:00,
2013-07-12 17:24:00,88.3,63.0,29.95,WSW,238,2.7,3.6,43,0.00,,,0.00,VWS V13.01,2013-07-12 22:24:00,
2013-07-12 17:30:00,88.3,63.7,29.95,ESE,103,3.1,4.0,44,0.00,,,0.00,VWS V13.01,2013-07-12 22:30:00,
2013-07-12 17:35:00,88.3,62.3,29.95,SSE,155,2.2,5.4,42,0.00,,,0.00,VWS V13.01,2013-07-12 22:35:00,
2013-07-12 17:40:00,87.8,61.9,29.95,ESE,112,3.6,3.6,42,0.00,,,0.00,VWS V13.01,2013-07-12 22:40:00,
2013-07-12 17:45:00,87.6,63.0,29.92,SSW,207,5.4,5.4,44,0.00,,,0.00,VWS V13.01,2013-07-12 22:45:00,
2013-07-12 17:50:00,87.6,61.7,29.92,South,171,3.1,3.1,42,0.00,,,0.00,VWS V13.01,2013-07-12 22:50:00,
2013-07-12 17:56:00,87.2,62.0,29.92,West,263,4.0,4.9,43,0.00,,,0.00,VWS V13.01,2013-07-12 22:56:00,
2013-07-12 18:01:00,87.6,63.0,29.92,SW,216,3.1,3.1,44,0.00,,,0.00,VWS V13.01,2013-07-12 23:01:00,
2013-07-12 18:06:00,88.1,62.2,29.92,SW,230,5.4,5.4,42,0.00,,,0.00,VWS V13.01,2013-07-12 23:06:00,
2013-07-12 18:11:00,88.1,62.8,29.92,South,172,4.0,4.0,43,0.00,,,0.00,VWS V13.01,2013-07-12 23:11:00,
2013-07-12 18:16:00,88.1,62.2,29.92,SW,226,2.7,3.1,42,0.00,,,0.00,VWS V13.01,2013-07-12 23:16:00,
2013-07-12 18:21:00,88.5,62.5,29.92,South,191,2.7,3.1,42,0.00,,,0.00,VWS V13.01,2013-07-12 23:21:00,
2013-07-12 18:26:00,88.5,62.5,29.92,SW,229,3.6,4.9,42,0.00,,,0.00,VWS V13.01,2013-07-12 23:26:00,
2013-07-12 18:31:00,88.5,62.5,29.92,WSW,242,3.1,3.1,42,0.00,,,0.00,VWS V13.01,2013-07-12 23:31:00,
2013-07-12 18:36:00,88.5,62.5,29.92,SW,229,3.6,3.6,42,0.00,,,0.00,VWS V13.01,2013-07-12 23:36:00,
2013-07-12 18:42:00,88.1,62.2,29.92,WSW,241,2.7,3.6,42,0.00,,,0.00,VWS V13.01,2013-07-12 23:42:00,
2013-07-12 18:47:00,88.0,62.7,29.92,SW,228,2.2,3.1,43,0.00,,,0.00,VWS V13.01,2013-07-12 23:47:00,
2013-07-12 18:52:00,88.5,63.2,29.92,WSW,240,0.0,0.0,43,0.00,,,0.00,VWS V13.01,2013-07-12 23:52:00,
2013-07-12 18:57:00,88.1,61.5,29.92,SE,129,2.2,2.2,41,0.00,,,0.00,VWS V13.01,2013-07-12 23:57:00,
2013-07-12 19:03:00,88.0,61.3,29.92,SE,140,2.7,2.7,41,0.00,,,0.00,VWS V13.01,2013-07-13 00:03:00,
2013-07-12 19:08:00,87.6,61.7,29.92,SE,143,2.7,2.7,42,0.00,,,0.00,VWS V13.01,2013-07-13 00:08:00,
2013-07-12 19:13:00,87.4,62.2,29.92,SSW,193,0.0,0.0,43,0.00,,,0.00,VWS V13.01,2013-07-13 00:13:00,
2013-07-12 19:18:00,87.2,62.0,29.92,ESE,120,2.7,3.1,43,0.00,,,0.00,VWS V13.01,2013-07-13 00:18:00,
2013-07-12 19:23:00,86.9,61.0,29.92,SE,129,2.7,3.6,42,0.00,,,0.00,VWS V13.01,2013-07-13 00:23:00,
2013-07-12 19:28:00,86.5,61.4,29.92,ESE,102,2.2,3.6,43,0.00,,,0.00,VWS V13.01,2013-07-13 00:28:00,
2013-07-12 19:33:00,86.2,62.3,29.92,East,93,0.0,2.2,45,0.00,,,0.00,VWS V13.01,2013-07-13 00:33:00,
2013-07-12 19:39:00,85.6,61.2,29.92,ESE,117,2.7,2.7,44,0.00,,,0.00,VWS V13.01,2013-07-13 00:39:00,
2013-07-12 19:44:00,85.3,60.9,29.92,ESE,110,3.1,3.6,44,0.00,,,0.00,VWS V13.01,2013-07-13 00:44:00,
2013-07-12 19:49:00,85.1,60.7,29.92,East,98,2.7,3.6,44,0.00,,,0.00,VWS V13.01,2013-07-13 00:49:00,
2013-07-12 19:54:00,84.7,60.4,29.92,ESE,106,2.2,2.7,44,0.00,,,0.00,VWS V13.01,2013-07-13 00:54:00,
2013-07-12 19:59:00,84.4,59.5,29.92,ESE,111,5.4,5.8,43,0.00,,,0.00,VWS V13.01,2013-07-13 00:59:00,
2013-07-12 20:04:00,83.8,59.6,29.92,East,94,2.7,3.6,44,0.00,,,0.00,VWS V13.01,2013-07-13 01:04:00,
2013-07-12 20:10:00,83.5,59.3,29.92,East,101,3.1,3.6,44,0.00,,,0.00,VWS V13.01,2013-07-13 01:10:00,
2013-07-12 20:15:00,82.9,59.4,29.92,East,93,2.2,2.7,45,0.00,,,0.00,VWS V13.01,2013-07-13 01:15:00,
2013-07-12 20:20:00,82.7,59.3,29.92,East,95,0.0,2.7,45,0.00,,,0.00,VWS V13.01,2013-07-13 01:20:00,
2013-07-12 20:25:00,82.4,58.3,29.92,East,89,2.7,3.1,44,0.00,,,0.00,VWS V13.01,2013-07-13 01:25:00,
2013-07-12 20:30:00,82.0,59.2,29.92,East,89,0.0,2.7,46,0.00,,,0.00,VWS V13.01,2013-07-13 01:30:00,
2013-07-12 20:35:00,81.5,58.7,29.92,ESE,113,2.7,2.7,46,0.00,,,0.00,VWS V13.01,2013-07-13 01:35:00,
2013-07-12 20:40:00,81.1,58.4,29.92,East,84,0.0,2.2,46,0.00,,,0.00,VWS V13.01,2013-07-13 01:40:00,
2013-07-12 20:46:00,80.8,57.5,29.95,East,95,4.0,4.0,45,0.00,,,0.00,VWS V13.01,2013-07-13 01:46:00,
2013-07-12 20:51:00,80.8,58.1,29.95,East,92,2.2,2.2,46,0.00,,,0.00,VWS V13.01,2013-07-13 01:51:00,
2013-07-12 20:56:00,80.4,58.3,29.95,East,92,0.0,0.0,47,0.00,,,0.00,VWS V13.01,2013-07-13 01:56:00,
2013-07-12 21:01:00,79.9,60.1,29.92,NNE,21,0.0,0.0,51,0.00,,,0.00,VWS V13.01,2013-07-13 02:01:00,
2013-07-12 21:06:00,79.0,59.3,29.92,NNE,21,0.0,0.0,51,0.00,,,0.00,VWS V13.01,2013-07-13 02:06:00,
2013-07-12 21:11:00,78.1,59.0,29.92,North,7,0.0,0.0,52,0.00,,,0.00,VWS V13.01,2013-07-13 02:11:00,
2013-07-12 21:17:00,77.5,59.1,29.95,North,7,0.0,0.0,53,0.00,,,0.00,VWS V13.01,2013-07-13 02:17:00,
2013-07-12 21:22:00,77.0,59.6,29.95,North,7,0.0,0.0,55,0.00,,,0.00,VWS V13.01,2013-07-13 02:22:00,
2013-07-12 21:27:00,76.3,59.4,29.95,North,7,0.0,0.0,56,0.00,,,0.00,VWS V13.01,2013-07-13 02:27:00,
2013-07-12 21:32:00,75.5,59.7,29.95,North,7,0.0,0.0,58,0.00,,,0.00,VWS V13.01,2013-07-13 02:32:00,
2013-07-12 21:38:00,75.2,60.4,29.95,North,7,0.0,0.0,60,0.00,,,0.00,VWS V13.01,2013-07-13 02:38:00,
2013-07-12 21:43:00,74.6,60.8,29.95,North,7,0.0,0.0,62,0.00,,,0.00,VWS V13.01,2013-07-13 02:43:00,
2013-07-12 21:48:00,73.9,60.1,29.95,North,7,0.0,0.0,62,0.00,,,0.00,VWS V13.01,2013-07-13 02:48:00,
2013-07-12 21:54:00,73.4,60.5,29.95,North,7,0.0,0.0,64,0.00,,,0.00,VWS V13.01,2013-07-13 02:54:00,
2013-07-12 21:59:00,72.7,59.8,29.95,North,7,0.0,0.0,64,0.00,,,0.00,VWS V13.01,2013-07-13 02:59:00,
2013-07-12 22:04:00,71.9,60.4,29.95,North,7,0.0,0.0,67,0.00,,,0.00,VWS V13.01,2013-07-13 03:04:00,
2013-07-12 22:10:00,71.6,60.1,29.95,North,7,0.0,0.0,67,0.00,,,0.00,VWS V13.01,2013-07-13 03:10:00,
2013-07-12 22:15:00,71.4,59.9,29.95,North,7,0.0,0.0,67,0.00,,,0.00,VWS V13.01,2013-07-13 03:15:00,
2013-07-12 22:20:00,71.0,60.0,29.95,North,7,0.0,0.0,68,0.00,,,0.00,VWS V13.01,2013-07-13 03:20:00,
2013-07-12 22:26:00,70.5,59.4,29.95,North,7,0.0,0.0,68,0.00,,,0.00,VWS V13.01,2013-07-13 03:26:00,
2013-07-12 22:32:00,70.1,60.3,29.95,North,7,0.0,0.0,71,0.00,,,0.00,VWS V13.01,2013-07-13 03:32:00,
2013-07-12 22:37:00,69.8,60.4,29.95,North,7,0.0,0.0,72,0.00,,,0.00,VWS V13.01,2013-07-13 03:37:00,
2013-07-12 22:42:00,69.6,60.2,29.95,North,7,0.0,0.0,72,0.00,,,0.00,VWS V13.01,2013-07-13 03:42:00,
2013-07-12 22:47:00,69.2,60.2,29.95,North,7,0.0,0.0,73,0.00,,,0.00,VWS V13.01,2013-07-13 03:47:00,
2013-07-12 22:52:00,68.9,61.0,29.95,North,7,0.0,0.0,76,0.00,,,0.00,VWS V13.01,2013-07-13 03:52:00,
2013-07-12 22:58:00,68.5,61.0,29.95,North,7,0.0,0.0,77,0.00,,,0.00,VWS V13.01,2013-07-13 03:58:00,
2013-07-12 23:01:00,68.2,60.7,29.95,North,7,0.0,0.0,77,0.00,,,0.00,VWS V13.01,2013-07-13 04:01:00,
2013-07-12 23:02:00,68.2,60.7,29.95,North,7,0.0,0.0,77,0.00,,,0.00,VWS V13.01,2013-07-13 04:02:00,
2013-07-12 23:07:00,68.0,60.1,29.95,North,7,0.0,0.0,76,0.00,,,0.00,VWS V13.01,2013-07-13 04:07:00,
2013-07-12 23:12:00,67.8,59.6,29.95,North,7,0.0,0.0,75,0.00,,,0.00,VWS V13.01,2013-07-13 04:12:00,
2013-07-12 23:17:00,67.6,60.5,29.95,North,7,0.0,0.0,78,0.00,,,0.00,VWS V13.01,2013-07-13 04:17:00,
2013-07-12 23:22:00,67.3,60.2,29.95,North,7,0.0,0.0,78,0.00,,,0.00,VWS V13.01,2013-07-13 04:22:00,
2013-07-12 23:27:00,66.7,58.2,29.95,North,7,0.0,0.0,74,0.00,,,0.00,VWS V13.01,2013-07-13 04:27:00,
2013-07-12 23:32:00,67.3,59.1,29.98,North,7,0.0,0.0,75,0.00,,,0.00,VWS V13.01,2013-07-13 04:32:00,
2013-07-12 23:37:00,67.4,60.3,29.98,North,7,0.0,0.0,78,0.00,,,0.00,VWS V13.01,2013-07-13 04:37:00,
2013-07-12 23:42:00,67.3,59.1,29.98,North,7,0.0,0.0,75,0.00,,,0.00,VWS V13.01,2013-07-13 04:42:00,
2013-07-12 23:47:00,67.1,58.5,29.98,North,7,0.0,0.0,74,0.00,,,0.00,VWS V13.01,2013-07-13 04:47:00,
2013-07-12 23:52:00,66.9,59.5,29.98,North,7,0.0,0.0,77,0.00,,,0.00,VWS V13.01,2013-07-13 04:52:00,
2013-07-12 23:57:00,66.7,60.4,29.98,North,7,0.0,0.0,80,0.00,,,0.00,VWS V13.01,2013-07-13 04:57:00,